Decoded Metar for LFBE (BERGERAC in FRANCE) (IATA:EGC) | Meteo·Mobile Aviation Weather
aviador You're here:

LFBE Decoded Metar

BERGERAC in FRANCE
Report Time2019-07-21 16:30:00
UTC Time2019-07-21 17:00:14
Flight Rules vfr VFR
Wind300° at 06 kt
W.Decomp.*RWY 28: 5.6 kt HW 2.1 kt RCW
Visibility9999 m
Phenomena:N/A
Clouds:N/A
Expected CloudBase > 6,000 ft AGL from Temp-Dew spread
CeilingNone
Temp31°C (ISA +16)
Dew Point16°C (40% RH)
Heat Index30.9°C
AAT30.7°C
QNH1020 hPa
Density Alt2,051 ft
Elevation171 ft
Report Wrong Elevation
Raw Report
LFBE 211630Z AUTO 30006KT 260V350 CAVOK 31/16 Q1020 NOSIG=

Extra information for LFBE:More info

Metar Taf Metar & Taf Last 4 Metars F.Rules Stats Wind Profile Meteogram Temp Stats Airport Information Weather charts Add Link Nearby VenuesMetar ALERT Operation Metar Decoded Social comments